createdAt,value
2018-05-08T00:00:08.232Z,73.94
2018-05-08T00:01:08.226Z,73.17
2018-05-08T00:02:08.221Z,73.17
2018-05-08T00:03:08.220Z,73.08
2018-05-08T00:04:08.208Z,73.17
2018-05-08T00:05:08.202Z,73.84
2018-05-08T00:06:08.195Z,73.43
2018-05-08T00:07:08.189Z,73.90
2018-05-08T00:08:08.183Z,73.04
2018-05-08T00:09:08.177Z,72.75
2018-05-08T00:10:08.171Z,71.26
2018-05-08T00:11:08.165Z,70.87
2018-05-08T00:12:08.159Z,70.87
2018-05-08T00:13:08.153Z,71.64
2018-05-08T00:14:08.147Z,70.30
2018-05-08T00:15:08.144Z,71.16
2018-05-08T00:16:08.134Z,72.12
2018-05-08T00:17:08.128Z,72.50
2018-05-08T00:18:08.122Z,72.79
2018-05-08T00:19:08.115Z,72.31
2018-05-08T00:20:08.110Z,72.88
2018-05-08T00:21:08.103Z,73.17
2018-05-08T00:22:08.098Z,73.36
2018-05-08T00:23:08.091Z,73.55
2018-05-08T00:24:08.085Z,73.75
2018-05-08T00:25:08.079Z,74.13
2018-05-08T00:26:08.073Z,74.51
2018-05-08T00:27:08.066Z,74.57
2018-05-08T00:28:08.146Z,74.48
2018-05-08T00:29:08.054Z,75.05
2018-05-08T00:30:08.049Z,76.00
2018-05-08T00:31:08.041Z,74.66
2018-05-08T00:32:08.035Z,73.90
2018-05-08T00:33:08.029Z,74.85
2018-05-08T00:34:08.023Z,75.24
2018-05-08T00:35:08.017Z,74.48
2018-05-08T00:36:08.011Z,72.85
2018-05-08T00:37:08.006Z,73.14
2018-05-08T00:38:07.999Z,73.99
2018-05-08T00:39:07.991Z,72.47
2018-05-08T00:40:07.986Z,72.60
2018-05-08T00:41:07.979Z,72.69
2018-05-08T00:42:07.973Z,72.79
2018-05-08T00:43:07.966Z,73.27
2018-05-08T00:44:07.960Z,73.17
2018-05-08T00:45:07.955Z,71.83
2018-05-08T00:46:07.948Z,71.36
2018-05-08T00:47:07.941Z,69.44
2018-05-08T00:48:07.935Z,70.15
2018-05-08T00:49:07.929Z,71.01
2018-05-08T00:50:07.923Z,69.48
2018-05-08T00:51:07.916Z,71.48
2018-05-08T00:52:07.910Z,72.22
2018-05-08T00:53:07.905Z,70.21
2018-05-08T00:54:07.898Z,71.36
2018-05-08T00:55:07.891Z,70.50
2018-05-08T00:56:07.885Z,70.11
2018-05-08T00:57:07.881Z,70.11
2018-05-08T00:58:07.873Z,69.67
2018-05-08T00:59:07.866Z,69.67
2018-05-08T01:00:07.860Z,69.76
2018-05-08T01:01:07.854Z,70.34
2018-05-08T01:02:07.848Z,70.34
2018-05-08T01:03:07.841Z,69.67
2018-05-08T01:04:07.836Z,69.76
2018-05-08T01:05:07.829Z,70.15
2018-05-08T01:06:07.824Z,69.76
2018-05-08T01:07:07.816Z,71.07
2018-05-08T01:08:07.810Z,71.39
2018-05-08T01:09:07.804Z,71.55
2018-05-08T01:10:07.798Z,71.36
2018-05-08T01:11:07.791Z,70.78
2018-05-08T01:12:07.787Z,70.50
2018-05-08T01:13:07.779Z,70.50
2018-05-08T01:14:07.774Z,70.78
2018-05-08T01:15:07.767Z,70.30
2018-05-08T01:16:07.764Z,70.40
2018-05-08T01:17:07.935Z,70.78
2018-05-08T01:18:07.748Z,71.07
2018-05-08T01:19:07.742Z,71.16
2018-05-08T01:20:07.736Z,71.64
2018-05-08T01:21:07.730Z,72.02
2018-05-08T01:22:07.727Z,71.36
2018-05-08T01:23:07.717Z,71.64
2018-05-08T01:24:07.711Z,72.02
2018-05-08T01:25:07.705Z,72.02
2018-05-08T01:26:07.700Z,72.37
2018-05-08T01:27:07.691Z,72.56
2018-05-08T01:28:07.686Z,72.08
2018-05-08T01:29:07.679Z,72.08
2018-05-08T01:30:07.675Z,71.99
2018-05-08T01:31:07.666Z,72.47
2018-05-08T01:32:07.660Z,72.75
2018-05-08T01:33:07.654Z,73.04
2018-05-08T01:34:07.648Z,73.52
2018-05-08T01:35:07.642Z,72.37
2018-05-08T01:36:07.635Z,72.85
2018-05-08T01:37:07.629Z,73.90
2018-05-08T01:38:07.627Z,73.52
2018-05-08T01:39:07.616Z,73.52
2018-05-08T01:40:07.610Z,73.90
2018-05-08T01:41:07.608Z,73.99
2018-05-08T01:42:07.598Z,74.57
2018-05-08T01:43:07.590Z,75.14
2018-05-08T01:44:07.584Z,74.57
2018-05-08T01:45:07.578Z,74.76
2018-05-08T01:46:07.575Z,74.66
2018-05-08T01:47:07.564Z,74.28
2018-05-08T01:48:07.626Z,74.57
2018-05-08T01:49:07.552Z,75.14
2018-05-08T01:50:07.545Z,75.49
2018-05-08T01:51:07.539Z,75.68
2018-05-08T01:52:07.532Z,76.29
2018-05-08T01:53:07.528Z,76.64
2018-05-08T01:54:07.520Z,76.73
2018-05-08T01:55:07.513Z,76.16
2018-05-08T01:56:07.506Z,76.35
2018-05-08T01:57:07.500Z,75.68
2018-05-08T01:58:07.493Z,76.64
2018-05-08T01:59:07.486Z,76.64
2018-05-08T02:00:07.484Z,76.25
2018-05-08T02:01:07.473Z,76.25
2018-05-08T02:02:07.468Z,76.16
2018-05-08T02:03:07.460Z,76.35
2018-05-08T02:04:07.454Z,76.45
2018-05-08T02:05:07.448Z,76.82
2018-05-08T02:06:07.442Z,76.64
2018-05-08T02:07:07.437Z,75.87
2018-05-08T02:08:07.427Z,75.78
2018-05-08T02:09:07.422Z,75.20
2018-05-08T02:10:07.414Z,75.30
2018-05-08T02:11:07.407Z,75.68
2018-05-08T02:12:07.401Z,75.78
2018-05-08T02:13:07.395Z,76.35
2018-05-08T02:14:07.388Z,77.11
2018-05-08T02:15:07.380Z,76.92
2018-05-08T02:16:07.374Z,75.78
2018-05-08T02:17:07.368Z,76.64
2018-05-08T02:18:07.361Z,76.73
2018-05-08T02:19:07.355Z,76.64
2018-05-08T02:20:07.349Z,76.54
2018-05-08T02:21:07.341Z,77.30
2018-05-08T02:22:07.336Z,76.92
2018-05-08T02:23:07.328Z,75.96
2018-05-08T02:24:07.321Z,75.59
2018-05-08T02:25:07.317Z,76.16
2018-05-08T02:26:07.310Z,75.68
2018-05-08T02:27:07.305Z,76.16
2018-05-08T02:28:07.294Z,75.68
2018-05-08T02:29:07.288Z,75.87
2018-05-08T02:30:07.282Z,76.25
2018-05-08T02:31:07.275Z,76.73
2018-05-08T02:32:07.268Z,76.25
2018-05-08T02:33:07.261Z,76.54
2018-05-08T02:34:07.255Z,76.73
2018-05-08T02:35:07.248Z,76.16
2018-05-08T02:36:07.241Z,75.78
2018-05-08T02:37:07.234Z,76.25
2018-05-08T02:38:07.228Z,76.25
2018-05-08T02:39:07.220Z,76.82
2018-05-08T02:40:07.218Z,76.73
2018-05-08T02:41:07.207Z,76.92
2018-05-08T02:42:07.202Z,77.87
2018-05-08T02:43:07.193Z,77.11
2018-05-08T02:44:07.186Z,77.30
2018-05-08T02:45:07.180Z,77.26
2018-05-08T02:46:07.175Z,77.08
2018-05-08T02:47:07.166Z,76.92
2018-05-08T02:48:07.159Z,76.98
2018-05-08T02:49:07.152Z,77.17
2018-05-08T02:50:07.146Z,78.03
2018-05-08T02:51:07.137Z,78.31
2018-05-08T02:52:07.132Z,77.94
2018-05-08T02:53:07.125Z,78.41
2018-05-08T02:54:07.118Z,78.51
2018-05-08T02:55:07.110Z,79.08
2018-05-08T02:56:07.106Z,78.31
2018-05-08T02:57:07.097Z,78.31
2018-05-08T02:58:07.091Z,78.03
2018-05-08T02:59:07.083Z,77.74
2018-05-08T03:00:07.076Z,77.84
2018-05-08T03:01:07.070Z,77.74
2018-05-08T03:02:07.063Z,78.22
2018-05-08T03:03:07.056Z,78.22
2018-05-08T03:04:07.049Z,79.36
2018-05-08T03:05:07.045Z,78.99
2018-05-08T03:06:07.036Z,79.08
2018-05-08T03:07:07.030Z,79.27
2018-05-08T03:08:07.021Z,78.70
2018-05-08T03:09:07.015Z,78.51
2018-05-08T03:10:07.009Z,78.60
2018-05-08T03:11:07.001Z,78.60
2018-05-08T03:12:06.993Z,79.56
2018-05-08T03:13:06.987Z,79.75
2018-05-08T03:14:06.979Z,79.46
2018-05-08T03:15:06.971Z,80.41
2018-05-08T03:16:06.965Z,80.57
2018-05-08T03:17:06.957Z,79.36
2018-05-08T03:18:06.951Z,79.94
2018-05-08T03:19:06.943Z,80.57
2018-05-08T03:20:06.936Z,80.57
2018-05-08T03:21:06.935Z,80.19
2018-05-08T03:22:06.923Z,80.38
2018-05-08T03:23:06.915Z,81.04
2018-05-08T03:24:06.908Z,81.14
2018-05-08T03:25:06.901Z,80.85
2018-05-08T03:26:06.894Z,80.28
2018-05-08T03:27:06.886Z,80.95
2018-05-08T03:28:06.880Z,81.33
2018-05-08T03:29:06.872Z,81.71
2018-05-08T03:30:06.873Z,80.57
2018-05-08T03:31:06.857Z,80.38
2018-05-08T03:32:06.851Z,80.57
2018-05-08T03:33:06.844Z,80.28
2018-05-08T03:34:06.839Z,80.66
2018-05-08T03:35:06.830Z,79.99
2018-05-08T03:36:06.822Z,79.80
2018-05-08T03:37:06.816Z,79.99
2018-05-08T03:38:06.808Z,80.38
2018-05-08T03:39:06.800Z,80.19
2018-05-08T03:40:06.795Z,79.71
2018-05-08T03:41:06.787Z,80.57
2018-05-08T03:42:06.780Z,80.38
2018-05-08T03:43:06.772Z,80.76
2018-05-08T03:44:06.765Z,80.66
2018-05-08T03:45:06.758Z,80.38
2018-05-08T03:46:06.759Z,81.71
2018-05-08T03:47:06.743Z,81.04
2018-05-08T03:48:06.737Z,80.95
2018-05-08T03:49:06.729Z,80.76
2018-05-08T03:50:06.721Z,81.62
2018-05-08T03:51:06.714Z,81.33
2018-05-08T03:52:06.707Z,80.57
2018-05-08T03:53:06.702Z,80.85
2018-05-08T03:54:06.692Z,81.62
2018-05-08T03:55:06.685Z,81.52
2018-05-08T03:56:06.677Z,81.33
2018-05-08T03:57:06.670Z,81.33
2018-05-08T03:58:06.667Z,82.19
2018-05-08T03:59:06.655Z,81.81
2018-05-08T04:00:06.648Z,81.90
2018-05-08T04:01:06.640Z,82.09
2018-05-08T04:02:06.634Z,82.95
2018-05-08T04:03:06.626Z,82.86
2018-05-08T04:04:06.619Z,81.71
2018-05-08T04:05:06.612Z,82.19
2018-05-08T04:06:06.605Z,82.19
2018-05-08T04:07:06.596Z,81.71
2018-05-08T04:08:06.590Z,82.38
2018-05-08T04:09:06.583Z,81.81
2018-05-08T04:10:06.576Z,81.71
2018-05-08T04:11:06.567Z,81.43
2018-05-08T04:12:06.560Z,82.38
2018-05-08T04:13:06.553Z,82.76
2018-05-08T04:14:06.546Z,81.71
2018-05-08T04:15:06.557Z,81.62
2018-05-08T04:16:06.533Z,82.09
2018-05-08T04:17:06.526Z,82.86
2018-05-08T04:18:06.517Z,82.76
2018-05-08T04:19:06.509Z,82.29
2018-05-08T04:20:06.502Z,82.38
2018-05-08T04:21:06.564Z,81.52
2018-05-08T04:22:06.488Z,82.29
2018-05-08T04:23:06.482Z,83.14
2018-05-08T04:24:06.473Z,82.67
2018-05-08T04:25:06.466Z,82.57
2018-05-08T04:26:06.460Z,82.95
2018-05-08T04:27:06.513Z,83.43
2018-05-08T04:28:06.444Z,83.91
2018-05-08T04:29:06.438Z,83.43
2018-05-08T04:30:06.429Z,82.95
2018-05-08T04:31:06.428Z,83.72
2018-05-08T04:32:06.415Z,83.81
2018-05-08T04:33:06.408Z,83.72
2018-05-08T04:34:06.403Z,85.05
2018-05-08T04:35:06.394Z,84.29
2018-05-08T04:36:06.385Z,83.91
2018-05-08T04:37:06.378Z,85.05
2018-05-08T04:38:06.372Z,85.05
2018-05-08T04:39:06.364Z,83.81
2018-05-08T04:40:06.358Z,83.81
2018-05-08T04:41:06.352Z,83.62
2018-05-08T04:42:06.342Z,83.72
2018-05-08T04:43:06.335Z,82.48
2018-05-08T04:44:06.362Z,82.86
2018-05-08T04:45:06.320Z,82.86
2018-05-08T04:46:06.314Z,82.67
2018-05-08T04:47:06.305Z,82.67
2018-05-08T04:48:06.298Z,83.91
2018-05-08T04:49:06.292Z,83.81
2018-05-08T04:50:06.291Z,83.43
2018-05-08T04:51:06.277Z,84.10
2018-05-08T04:52:06.270Z,84.58
2018-05-08T04:53:06.263Z,82.09
2018-05-08T04:54:06.258Z,81.62
2018-05-08T04:55:06.248Z,81.85
2018-05-08T04:56:06.241Z,81.56
2018-05-08T04:57:06.244Z,81.56
2018-05-08T04:58:06.228Z,80.41
2018-05-08T04:59:06.220Z,79.94
2018-05-08T05:00:06.213Z,79.98
2018-05-08T05:01:06.210Z,78.93
2018-05-08T05:02:06.199Z,79.50
2018-05-08T05:03:06.192Z,79.31
2018-05-08T05:04:06.185Z,79.50
2018-05-08T05:05:06.178Z,79.41
2018-05-08T05:06:06.171Z,79.02
2018-05-08T05:07:06.163Z,79.22
2018-05-08T05:08:06.157Z,78.93
2018-05-08T05:09:06.150Z,79.60
2018-05-08T05:10:06.143Z,78.68
2018-05-08T05:11:06.146Z,78.20
2018-05-08T05:12:06.129Z,77.53
2018-05-08T05:13:06.123Z,78.30
2018-05-08T05:14:06.116Z,77.82
2018-05-08T05:15:06.108Z,77.15
2018-05-08T05:16:06.102Z,78.49
2018-05-08T05:17:06.100Z,76.67
2018-05-08T05:18:06.089Z,76.29
2018-05-08T05:19:06.157Z,76.29
2018-05-08T05:20:06.078Z,75.91
2018-05-08T05:21:06.067Z,75.85
2018-05-08T05:22:06.060Z,75.91
2018-05-08T05:23:06.052Z,76.23
2018-05-08T05:24:06.046Z,75.95
2018-05-08T05:25:06.041Z,75.95
2018-05-08T05:26:06.033Z,75.85
2018-05-08T05:27:06.025Z,75.09
2018-05-08T05:28:06.019Z,74.90
2018-05-08T05:29:06.013Z,74.70
2018-05-08T05:30:06.008Z,74.70
2018-05-08T05:31:05.999Z,74.70
2018-05-08T05:32:05.992Z,73.84
2018-05-08T05:33:05.986Z,73.75
2018-05-08T05:34:05.982Z,74.26
2018-05-08T05:35:05.973Z,73.30
2018-05-08T05:36:05.966Z,74.16
2018-05-08T05:37:05.960Z,73.59
2018-05-08T05:38:05.956Z,73.11
2018-05-08T05:39:05.946Z,72.63
2018-05-08T05:40:05.940Z,73.11
2018-05-08T05:41:05.934Z,73.15
2018-05-08T05:42:05.928Z,72.58
2018-05-08T05:43:05.921Z,72.29
2018-05-08T05:44:05.915Z,72.19
2018-05-08T05:45:05.909Z,71.33
2018-05-08T05:46:05.903Z,71.23
2018-05-08T05:47:05.896Z,71.04
2018-05-08T05:48:05.890Z,71.71
2018-05-08T05:49:05.885Z,71.52
2018-05-08T05:50:05.878Z,70.76
2018-05-08T05:51:05.871Z,71.81
2018-05-08T05:52:05.871Z,71.46
2018-05-08T05:53:05.863Z,70.21
2018-05-08T05:54:05.854Z,70.79
2018-05-08T05:55:05.847Z,70.03
2018-05-08T05:56:05.844Z,69.64
2018-05-08T05:57:05.836Z,68.68
2018-05-08T05:58:05.831Z,69.83
2018-05-08T05:59:05.824Z,68.21
2018-05-08T06:00:05.907Z,68.78
2018-05-08T06:01:05.812Z,68.91
2018-05-08T06:02:05.807Z,67.76
2018-05-08T06:03:05.800Z,67.66
2018-05-08T06:04:05.801Z,67.09
2018-05-08T06:05:05.789Z,66.51
2018-05-08T06:06:05.784Z,67.47
2018-05-08T06:07:05.778Z,66.80
2018-05-08T06:08:05.774Z,67.79
2018-05-08T06:09:05.766Z,66.06
2018-05-08T06:10:05.762Z,65.78
2018-05-08T06:11:05.755Z,64.72
2018-05-08T06:12:05.750Z,64.63
2018-05-08T06:13:05.759Z,65.20
2018-05-08T06:14:05.740Z,65.30
2018-05-08T06:15:05.734Z,64.05
2018-05-08T06:16:05.729Z,64.92
2018-05-08T06:17:05.723Z,65.01
2018-05-08T06:18:05.722Z,64.56
2018-05-08T06:19:05.713Z,65.23
2018-05-08T06:20:05.707Z,64.95
2018-05-08T06:21:05.703Z,64.09
2018-05-08T06:22:05.698Z,64.28
2018-05-08T06:23:05.692Z,64.66
2018-05-08T06:24:05.691Z,63.54
2018-05-08T06:25:05.684Z,63.51
2018-05-08T06:26:05.679Z,63.64
2018-05-08T06:27:05.674Z,62.68
2018-05-08T06:28:05.670Z,63.06
2018-05-08T06:29:05.666Z,62.19
2018-05-08T06:30:05.665Z,62.48
2018-05-08T06:31:05.656Z,61.81
2018-05-08T06:32:05.652Z,60.88
2018-05-08T06:33:05.648Z,62.13
2018-05-08T06:34:05.644Z,63.57
2018-05-08T06:35:05.639Z,61.27
2018-05-08T06:36:05.642Z,60.02
2018-05-08T06:37:05.633Z,60.02
2018-05-08T06:38:05.627Z,60.11
2018-05-08T06:39:05.623Z,60.11
2018-05-08T06:40:05.623Z,60.05
2018-05-08T06:41:05.615Z,59.47
2018-05-08T06:42:05.611Z,60.34
2018-05-08T06:43:05.606Z,59.86
2018-05-08T06:44:05.607Z,60.53
2018-05-08T06:45:05.600Z,59.57
2018-05-08T06:46:05.623Z,58.32
2018-05-08T06:47:05.593Z,59.38
2018-05-08T06:48:05.588Z,58.89
2018-05-08T06:49:05.590Z,58.92
2018-05-08T06:50:05.582Z,59.60
2018-05-08T06:51:05.577Z,58.06
2018-05-08T06:52:05.576Z,57.97
2018-05-08T06:53:05.571Z,58.06
2018-05-08T06:54:05.568Z,58.06
2018-05-08T06:55:05.564Z,57.97
2018-05-08T06:56:05.562Z,56.14
2018-05-08T06:57:05.560Z,57.22
2018-05-08T06:58:05.556Z,56.84
2018-05-08T06:59:05.553Z,56.93
2018-05-08T07:00:05.551Z,56.93
2018-05-08T07:01:05.548Z,57.22
2018-05-08T07:02:05.546Z,55.11
2018-05-08T07:03:05.543Z,55.11
2018-05-08T07:04:05.541Z,55.20
2018-05-08T07:05:05.539Z,54.53
2018-05-08T07:06:05.540Z,54.94
2018-05-08T07:07:05.534Z,54.94
2018-05-08T07:08:05.533Z,54.75
2018-05-08T07:09:05.579Z,55.55
2018-05-08T07:10:05.531Z,54.00
2018-05-08T07:11:05.530Z,54.10
2018-05-08T07:12:05.530Z,53.17
2018-05-08T07:13:05.531Z,52.97
2018-05-08T07:14:05.533Z,50.66
2018-05-08T07:15:05.537Z,51.43
2018-05-08T07:16:05.762Z,52.11
2018-05-08T07:17:05.540Z,53.55
2018-05-08T07:18:05.542Z,54.06
2018-05-08T07:19:05.545Z,53.19
2018-05-08T07:20:05.549Z,52.64
2018-05-08T07:21:05.556Z,51.29
2018-05-08T07:22:05.559Z,51.20
2018-05-08T07:23:05.566Z,51.10
2018-05-08T07:24:05.579Z,52.57
2018-05-08T07:25:05.576Z,50.93
2018-05-08T07:26:05.582Z,51.25
2018-05-08T07:27:05.588Z,49.15
2018-05-08T07:28:05.599Z,50.01
2018-05-08T07:29:05.604Z,47.22
2018-05-08T07:30:05.689Z,47.99
2018-05-08T07:31:05.619Z,50.43
2018-05-08T07:32:05.631Z,48.21
2018-05-08T07:33:05.639Z,48.30
2018-05-08T07:34:05.701Z,48.03
2018-05-08T07:35:05.657Z,47.26
2018-05-08T07:36:05.663Z,46.49
2018-05-08T07:37:05.673Z,45.81
2018-05-08T07:38:05.683Z,47.16
2018-05-08T07:39:05.692Z,49.49
2018-05-08T07:40:05.700Z,46.88
2018-05-08T07:41:05.711Z,46.51
2018-05-08T07:42:05.721Z,45.25
2018-05-08T07:43:05.730Z,45.35
2018-05-08T07:44:05.740Z,46.80
2018-05-08T07:45:05.751Z,44.19
2018-05-08T07:46:05.762Z,44.57
2018-05-08T07:47:05.771Z,44.38
2018-05-08T07:48:05.782Z,44.96
2018-05-08T07:49:05.792Z,45.16
2018-05-08T07:50:05.804Z,46.44
2018-05-08T07:51:05.814Z,43.82
2018-05-08T07:52:05.824Z,45.28
2018-05-08T07:53:05.835Z,46.73
2018-05-08T07:54:05.847Z,47.14
2018-05-08T07:55:05.858Z,47.94
2018-05-08T07:56:05.869Z,46.58
2018-05-08T07:57:05.881Z,46.58
2018-05-08T07:58:05.894Z,43.89
2018-05-08T07:59:05.907Z,42.05
2018-05-08T08:00:05.918Z,42.54
2018-05-08T08:01:05.930Z,42.36
2018-05-08T08:02:05.943Z,42.46
2018-05-08T08:03:05.954Z,41.47
2018-05-08T08:04:05.968Z,41.17
2018-05-08T08:05:05.981Z,42.82
2018-05-08T08:06:05.993Z,44.18
2018-05-08T08:07:06.005Z,43.12
2018-05-08T08:08:06.018Z,42.46
2018-05-08T08:09:06.032Z,42.26
2018-05-08T08:10:06.044Z,40.25
2018-05-08T08:11:06.057Z,40.44
2018-05-08T08:12:06.070Z,40.23
2018-05-08T08:13:06.084Z,40.21
2018-05-08T08:14:06.097Z,41.37
2018-05-08T08:15:06.109Z,42.82
2018-05-08T08:16:06.122Z,42.24
2018-05-08T08:17:06.135Z,43.41
2018-05-08T08:18:06.152Z,43.70
2018-05-08T08:19:06.197Z,43.52
2018-05-08T08:20:06.185Z,44.71
2018-05-08T08:21:06.188Z,45.80
2018-05-08T08:22:06.202Z,42.30
2018-05-08T08:23:06.214Z,40.66
2018-05-08T08:24:06.229Z,41.45
2018-05-08T08:25:06.243Z,42.33
2018-05-08T08:26:06.257Z,42.44
2018-05-08T08:27:06.271Z,45.36
2018-05-08T08:28:06.286Z,43.24
2018-05-08T08:29:06.301Z,40.42
2018-05-08T08:30:06.315Z,41.20
2018-05-08T08:31:06.332Z,40.69
2018-05-08T08:32:06.345Z,41.01
2018-05-08T08:33:06.360Z,40.52
2018-05-08T08:34:06.375Z,40.23
2018-05-08T08:35:06.390Z,40.50
2018-05-08T08:36:06.407Z,42.35
2018-05-08T08:37:06.420Z,40.23
2018-05-08T08:38:06.436Z,39.04
2018-05-08T08:39:06.455Z,40.39
2018-05-08T08:40:06.466Z,40.39
2018-05-08T08:41:06.481Z,41.16
2018-05-08T08:42:06.496Z,40.67
2018-05-08T08:43:06.510Z,41.14
2018-05-08T08:44:06.526Z,41.72
2018-05-08T08:45:06.540Z,41.14
2018-05-08T08:46:06.555Z,42.11
2018-05-08T08:47:06.569Z,42.52
2018-05-08T08:48:06.584Z,42.43
2018-05-08T08:49:06.599Z,40.77
2018-05-08T08:50:06.614Z,41.53
2018-05-08T08:51:06.628Z,40.95
2018-05-08T08:52:06.643Z,41.31
2018-05-08T08:53:06.657Z,42.21
2018-05-08T08:54:06.673Z,43.10
2018-05-08T08:55:06.688Z,41.08
2018-05-08T08:56:06.745Z,40.09
2018-05-08T08:57:06.716Z,41.26
2018-05-08T08:58:06.731Z,41.16
2018-05-08T08:59:06.744Z,41.74
2018-05-08T09:00:06.759Z,40.29
2018-05-08T09:01:06.778Z,41.67
2018-05-08T09:02:06.804Z,43.32
2018-05-08T09:03:06.805Z,40.31
2018-05-08T09:04:06.899Z,42.66
2018-05-08T09:05:06.834Z,42.36
2018-05-08T09:06:06.850Z,40.25
2018-05-08T09:07:06.864Z,39.75
2018-05-08T09:08:06.880Z,39.36
2018-05-08T09:09:06.896Z,38.77
2018-05-08T09:10:06.911Z,39.92
2018-05-08T09:11:06.964Z,42.83
2018-05-08T09:12:06.941Z,41.88
2018-05-08T09:13:06.956Z,40.15
2018-05-08T09:14:06.984Z,38.57
2018-05-08T09:15:06.987Z,40.13
2018-05-08T09:16:07.007Z,41.39
2018-05-08T09:17:07.018Z,41.22
2018-05-08T09:18:07.034Z,41.93
2018-05-08T09:19:07.054Z,40.09
2018-05-08T09:20:07.065Z,37.56
2018-05-08T09:21:07.081Z,37.74
2018-05-08T09:22:07.097Z,38.42
2018-05-08T09:23:07.112Z,40.56
2018-05-08T09:24:07.129Z,38.71
2018-05-08T09:25:07.145Z,40.93
2018-05-08T09:26:07.162Z,41.34
2018-05-08T09:27:07.177Z,40.19
2018-05-08T09:28:07.194Z,40.11
2018-05-08T09:29:07.212Z,37.10
2018-05-08T09:30:07.231Z,38.17
2018-05-08T09:31:07.248Z,37.29
2018-05-08T09:32:07.269Z,36.43
2018-05-08T09:33:07.280Z,37.04
2018-05-08T09:34:07.299Z,38.67
2018-05-08T09:35:07.321Z,39.37
2018-05-08T09:36:07.332Z,38.59
2018-05-08T09:37:07.354Z,39.18
2018-05-08T09:38:07.368Z,38.02
2018-05-08T09:39:07.387Z,38.42
2018-05-08T09:40:07.404Z,39.29
2018-05-08T09:41:07.423Z,39.80
2018-05-08T09:42:07.441Z,38.84
2018-05-08T09:43:07.459Z,37.96
2018-05-08T09:44:07.480Z,33.38
2018-05-08T09:45:07.496Z,34.94
2018-05-08T09:46:07.516Z,35.31
2018-05-08T09:47:07.533Z,36.21
2018-05-08T09:48:07.552Z,36.11
2018-05-08T09:49:07.625Z,36.82
2018-05-08T09:50:07.590Z,36.72
2018-05-08T09:51:07.608Z,36.23
2018-05-08T09:52:07.628Z,35.36
2018-05-08T09:53:07.647Z,35.94
2018-05-08T09:54:07.700Z,35.84
2018-05-08T09:55:07.685Z,35.64
2018-05-08T09:56:07.704Z,35.45
2018-05-08T09:57:07.724Z,35.64
2018-05-08T09:58:07.744Z,35.95
2018-05-08T09:59:07.762Z,37.62
2018-05-08T10:00:07.782Z,36.73
2018-05-08T10:01:07.836Z,34.41
2018-05-08T10:02:07.821Z,33.22
2018-05-08T10:03:07.839Z,35.16
2018-05-08T10:04:07.860Z,34.86
2018-05-08T10:05:07.879Z,33.61
2018-05-08T10:06:07.907Z,34.96
2018-05-08T10:07:07.917Z,35.84
2018-05-08T10:08:07.938Z,35.43
2018-05-08T10:09:07.957Z,35.45
2018-05-08T10:10:07.976Z,34.28
2018-05-08T10:11:07.995Z,35.55
2018-05-08T10:12:08.014Z,35.55
2018-05-08T10:13:08.034Z,33.11
2018-05-08T10:14:08.053Z,35.17
2018-05-08T10:15:08.074Z,32.04
2018-05-08T10:16:08.091Z,31.85
2018-05-08T10:17:08.111Z,33.12
2018-05-08T10:18:08.131Z,33.41
2018-05-08T10:19:08.153Z,31.36
2018-05-08T10:20:08.168Z,29.59
2018-05-08T10:21:08.189Z,29.49
2018-05-08T10:22:08.210Z,30.16
2018-05-08T10:23:08.225Z,32.01
2018-05-08T10:24:08.245Z,32.01
2018-05-08T10:25:08.264Z,31.90
2018-05-08T10:26:08.283Z,33.38
2018-05-08T10:27:08.301Z,33.50
2018-05-08T10:28:08.319Z,33.30
2018-05-08T10:29:08.340Z,33.50
2018-05-08T10:30:08.358Z,32.99
2018-05-08T10:31:08.376Z,33.38
2018-05-08T10:32:08.396Z,33.09
2018-05-08T10:33:08.414Z,32.70
2018-05-08T10:34:08.433Z,33.11
2018-05-08T10:35:08.450Z,31.64
2018-05-08T10:36:08.469Z,32.62
2018-05-08T10:37:08.490Z,31.82
2018-05-08T10:38:08.507Z,31.04
2018-05-08T10:39:08.525Z,31.23
2018-05-08T10:40:08.543Z,32.11
2018-05-08T10:41:08.562Z,33.58
2018-05-08T10:42:08.581Z,34.47
2018-05-08T10:43:08.603Z,30.96
2018-05-08T10:44:08.617Z,32.32
2018-05-08T10:45:08.636Z,32.34
2018-05-08T10:46:08.655Z,31.46
2018-05-08T10:47:08.673Z,29.60
2018-05-08T10:48:08.693Z,30.97
2018-05-08T10:49:08.711Z,30.87
2018-05-08T10:50:08.730Z,31.46
2018-05-08T10:51:08.748Z,30.96
2018-05-08T10:52:08.767Z,31.93
2018-05-08T10:53:08.785Z,32.32
2018-05-08T10:54:08.804Z,34.78
2018-05-08T10:55:08.822Z,31.56
2018-05-08T10:56:08.841Z,29.61
2018-05-08T10:57:08.898Z,32.73
2018-05-08T10:58:08.879Z,32.06
2018-05-08T10:59:08.902Z,30.88
2018-05-08T11:00:08.917Z,32.95
2018-05-08T11:01:08.934Z,32.95
2018-05-08T11:02:08.953Z,32.78
2018-05-08T11:03:08.971Z,31.62
2018-05-08T11:04:08.990Z,30.91
2018-05-08T11:05:09.009Z,32.29
2018-05-08T11:06:09.029Z,32.19
2018-05-08T11:07:09.047Z,30.05
2018-05-08T11:08:09.065Z,29.36
2018-05-08T11:09:09.084Z,30.04
2018-05-08T11:10:09.104Z,29.91
2018-05-08T11:11:09.122Z,31.16
2018-05-08T11:12:09.146Z,32.04
2018-05-08T11:13:09.158Z,31.08
2018-05-08T11:14:09.177Z,30.88
2018-05-08T11:15:09.196Z,30.79
2018-05-08T11:16:09.215Z,30.20
2018-05-08T11:17:09.232Z,31.49
2018-05-08T11:18:09.251Z,27.28
2018-05-08T11:19:09.269Z,29.63
2018-05-08T11:20:09.288Z,31.10
2018-05-08T11:21:09.307Z,28.55
2018-05-08T11:22:09.325Z,29.42
2018-05-08T11:23:09.343Z,29.71
2018-05-08T11:24:09.361Z,28.65
2018-05-08T11:25:09.380Z,28.54
2018-05-08T11:26:09.399Z,29.61
2018-05-08T11:27:09.416Z,29.34
2018-05-08T11:28:09.438Z,29.42
2018-05-08T11:29:09.455Z,30.41
2018-05-08T11:30:09.473Z,30.32
2018-05-08T11:31:09.490Z,29.84
2018-05-08T11:32:09.510Z,27.58
2018-05-08T11:33:09.528Z,27.69
2018-05-08T11:34:09.546Z,26.10
2018-05-08T11:35:09.563Z,26.38
2018-05-08T11:36:09.581Z,27.36
2018-05-08T11:37:09.600Z,29.41
2018-05-08T11:38:09.617Z,29.21
2018-05-08T11:39:09.705Z,27.06
2018-05-08T11:40:09.652Z,26.09
2018-05-08T11:41:09.672Z,27.05
2018-05-08T11:42:09.688Z,28.42
2018-05-08T11:43:09.706Z,27.15
2018-05-08T11:44:09.721Z,28.89
2018-05-08T11:45:09.739Z,28.89
2018-05-08T11:46:09.756Z,27.41
2018-05-08T11:47:09.772Z,28.08
2018-05-08T11:48:09.791Z,30.44
2018-05-08T11:49:09.805Z,27.20
2018-05-08T11:50:09.857Z,28.96
2018-05-08T11:51:09.837Z,31.51
2018-05-08T11:52:09.854Z,30.16
2018-05-08T11:53:09.870Z,30.18
2018-05-08T11:54:09.895Z,28.11
2018-05-08T11:55:09.902Z,27.93
2018-05-08T11:56:09.925Z,28.03
2018-05-08T11:57:09.936Z,28.50
2018-05-08T11:58:09.950Z,29.28
2018-05-08T11:59:09.966Z,28.01
2018-05-08T12:00:09.982Z,28.39
2018-05-08T12:01:10.002Z,28.18
2018-05-08T12:02:10.013Z,30.63
2018-05-08T12:03:10.028Z,30.73
2018-05-08T12:04:10.044Z,28.19
2018-05-08T12:05:10.061Z,30.24
2018-05-08T12:06:10.075Z,32.01
2018-05-08T12:07:10.089Z,30.06
2018-05-08T12:08:10.105Z,29.98
2018-05-08T12:09:10.201Z,27.73
2018-05-08T12:10:10.139Z,29.02
2018-05-08T12:11:10.151Z,28.53
2018-05-08T12:12:10.166Z,28.34
2018-05-08T12:13:10.183Z,28.44
2018-05-08T12:14:10.199Z,28.55
2018-05-08T12:15:10.217Z,27.78
2018-05-08T12:16:10.233Z,27.29
2018-05-08T12:17:10.245Z,26.21
2018-05-08T12:18:10.261Z,28.14
2018-05-08T12:19:10.277Z,28.82
2018-05-08T12:20:10.292Z,29.03
2018-05-08T12:21:10.308Z,28.65
2018-05-08T12:22:10.324Z,27.28
2018-05-08T12:23:10.344Z,27.39
2018-05-08T12:24:10.354Z,28.18
2018-05-08T12:25:10.371Z,28.00
2018-05-08T12:26:10.386Z,27.11
2018-05-08T12:27:10.401Z,26.43
2018-05-08T12:28:10.417Z,26.25
2018-05-08T12:29:10.433Z,27.34
2018-05-08T12:30:10.449Z,27.14
2018-05-08T12:31:10.465Z,26.26
2018-05-08T12:32:10.484Z,26.15
2018-05-08T12:33:10.496Z,27.01
2018-05-08T12:34:10.513Z,27.39
2018-05-08T12:35:10.527Z,27.49
2018-05-08T12:36:10.586Z,28.67
2018-05-08T12:37:10.558Z,29.94
2018-05-08T12:38:10.573Z,27.11
2018-05-08T12:39:10.593Z,27.81
2018-05-08T12:40:10.607Z,27.14
2018-05-08T12:41:10.620Z,26.15
2018-05-08T12:42:10.696Z,26.43
2018-05-08T12:43:10.650Z,25.94
2018-05-08T12:44:10.670Z,27.23
2018-05-08T12:45:10.681Z,24.38
2018-05-08T12:46:10.696Z,24.46
2018-05-08T12:47:10.710Z,25.73
2018-05-08T12:48:10.728Z,26.42
2018-05-08T12:49:10.740Z,26.03
2018-05-08T12:50:10.756Z,25.24
2018-05-08T12:51:10.769Z,26.11
2018-05-08T12:52:10.784Z,27.38